createdAt,value
2023-02-03T00:00:20.445Z,82.03
2023-02-03T00:02:48.395Z,81.93
2023-02-03T00:05:16.127Z,81.71
2023-02-03T00:07:46.725Z,81.82
2023-02-03T00:10:15.084Z,81.43
2023-02-03T00:12:44.516Z,81.23
2023-02-03T00:15:13.326Z,81.25
2023-02-03T00:17:42.787Z,81.17
2023-02-03T00:20:13.930Z,80.37
2023-02-03T00:22:43.967Z,80.49
2023-02-03T00:25:14.202Z,80.26
2023-02-03T00:27:41.914Z,79.73
2023-02-03T00:30:13.585Z,79.17
2023-02-03T00:32:43.632Z,78.69
2023-02-03T00:35:11.333Z,78.36
2023-02-03T00:37:41.094Z,77.36
2023-02-03T00:40:09.166Z,77.05
2023-02-03T00:42:37.554Z,76.15
2023-02-03T00:45:05.591Z,75.88
2023-02-03T00:47:33.265Z,75.93
2023-02-03T00:50:01.016Z,76.05
2023-02-03T00:52:37.214Z,74.71
2023-02-03T00:55:07.893Z,73.96
2023-02-03T00:57:35.536Z,74.39
2023-02-03T01:00:03.259Z,73.85
2023-02-03T01:02:31.041Z,73.74
2023-02-03T01:04:59.072Z,73.80
2023-02-03T01:07:30.021Z,72.46
2023-02-03T01:09:57.663Z,72.63
2023-02-03T01:12:25.344Z,73.01
2023-02-03T01:14:53.068Z,73.17
2023-02-03T01:17:20.711Z,73.60
2023-02-03T01:19:52.443Z,73.15
2023-02-03T01:22:22.839Z,73.48
2023-02-03T01:24:50.847Z,73.68
2023-02-03T01:27:20.244Z,74.57
2023-02-03T01:29:47.892Z,74.92
2023-02-03T01:32:21.988Z,75.01
2023-02-03T01:34:50.116Z,74.77
2023-02-03T01:37:18.037Z,75.02
2023-02-03T01:39:49.329Z,75.63
2023-02-03T01:42:17.812Z,75.53
2023-02-03T01:44:48.025Z,76.07
2023-02-03T01:47:34.099Z,75.58
2023-02-03T01:50:13.019Z,75.97
2023-02-03T01:52:43.231Z,76.61
2023-02-03T01:55:15.136Z,76.99
2023-02-03T01:57:54.742Z,77.05
2023-02-03T02:00:22.878Z,76.46
2023-02-03T02:02:55.049Z,77.10
2023-02-03T02:05:42.944Z,78.07
2023-02-03T02:08:12.261Z,78.61
2023-02-03T02:10:40.752Z,79.97
2023-02-03T02:13:09.476Z,79.76
2023-02-03T02:15:45.319Z,79.92
2023-02-03T02:18:29.468Z,80.66
2023-02-03T02:21:06.000Z,80.51
2023-02-03T02:24:01.427Z,80.72
2023-02-03T02:26:39.927Z,81.33
2023-02-03T02:29:24.141Z,81.88
2023-02-03T02:32:04.214Z,81.71
2023-02-03T02:34:46.180Z,82.37
2023-02-03T02:37:26.136Z,82.79
2023-02-03T02:40:02.832Z,82.31
2023-02-03T02:42:58.061Z,82.15
2023-02-03T02:45:32.816Z,82.17
2023-02-03T02:48:16.729Z,81.82
2023-02-03T02:50:47.627Z,81.21
2023-02-03T02:53:16.663Z,81.49
2023-02-03T02:55:49.899Z,80.66
2023-02-03T02:58:20.506Z,81.46
2023-02-03T03:00:48.547Z,81.26
2023-02-03T03:03:21.980Z,81.90
2023-02-03T03:06:16.084Z,82.76
2023-02-03T03:08:58.463Z,83.04
2023-02-03T03:11:32.653Z,83.60
2023-02-03T03:14:00.676Z,84.03
2023-02-03T03:16:33.282Z,84.48
2023-02-03T03:19:06.870Z,85.08
2023-02-03T03:21:52.082Z,85.08
2023-02-03T03:24:29.389Z,85.57
2023-02-03T03:27:01.876Z,85.00
2023-02-03T03:29:38.479Z,85.16
2023-02-03T03:32:07.166Z,84.95
2023-02-03T03:34:35.344Z,86.00
2023-02-03T03:37:24.657Z,85.77
2023-02-03T03:40:17.366Z,84.76
2023-02-03T03:43:01.975Z,84.26
2023-02-03T03:46:01.609Z,84.56
2023-02-03T03:48:40.902Z,82.63
2023-02-03T03:51:26.430Z,82.33
2023-02-03T03:53:58.931Z,83.16
2023-02-03T03:56:50.546Z,82.64
2023-02-03T03:59:21.956Z,82.01
2023-02-03T04:01:52.095Z,82.40
2023-02-03T04:04:24.501Z,81.45
2023-02-03T04:06:55.570Z,81.33
2023-02-03T04:09:23.203Z,79.45
2023-02-03T04:12:03.085Z,79.95
2023-02-03T04:14:32.383Z,78.72
2023-02-03T04:17:02.036Z,79.14
2023-02-03T04:19:31.364Z,79.09
2023-02-03T04:21:59.048Z,78.64
2023-02-03T04:24:26.759Z,78.03
2023-02-03T04:26:54.688Z,76.18
2023-02-03T04:29:22.421Z,75.40
2023-02-03T04:31:50.162Z,75.03
2023-02-03T04:34:17.827Z,75.14
2023-02-03T04:36:45.460Z,75.78
2023-02-03T04:39:13.382Z,76.24
2023-02-03T04:41:41.613Z,76.17
2023-02-03T04:44:09.353Z,76.46
2023-02-03T04:46:37.015Z,77.15
2023-02-03T04:49:04.704Z,77.77
2023-02-03T04:51:37.247Z,77.86
2023-02-03T04:54:04.914Z,76.50
2023-02-03T04:56:32.548Z,77.00
2023-02-03T04:59:00.185Z,76.43
2023-02-03T05:01:30.179Z,77.55
2023-02-03T05:03:59.905Z,76.96
2023-02-03T05:06:31.111Z,74.88
2023-02-03T05:09:01.316Z,76.08
2023-02-03T05:11:32.256Z,76.39
2023-02-03T05:13:59.970Z,76.67
2023-02-03T05:16:29.991Z,76.83
2023-02-03T05:18:57.896Z,77.87
2023-02-03T05:21:27.046Z,77.14
2023-02-03T05:23:57.344Z,76.60
2023-02-03T05:26:25.210Z,76.42
2023-02-03T05:28:54.141Z,76.89
2023-02-03T05:31:22.751Z,74.47
2023-02-03T05:33:50.441Z,74.91
2023-02-03T05:36:18.083Z,72.82
2023-02-03T05:38:48.173Z,74.20
2023-02-03T05:41:33.037Z,72.91
2023-02-03T05:44:00.909Z,72.46
2023-02-03T05:46:36.302Z,71.51
2023-02-03T05:49:05.068Z,72.47
2023-02-03T05:51:32.849Z,72.08
2023-02-03T05:54:00.477Z,72.21
2023-02-03T05:56:28.194Z,71.28
2023-02-03T05:58:57.851Z,69.42
2023-02-03T06:01:25.623Z,71.07
2023-02-03T06:03:53.469Z,70.11
2023-02-03T06:06:21.158Z,69.26
2023-02-03T06:08:48.756Z,68.16
2023-02-03T06:11:16.597Z,68.69
2023-02-03T06:13:44.249Z,68.32
2023-02-03T06:16:12.058Z,67.24
2023-02-03T06:18:39.918Z,66.76
2023-02-03T06:21:07.889Z,66.82
2023-02-03T06:23:40.130Z,66.58
2023-02-03T06:26:07.699Z,65.24
2023-02-03T06:28:35.362Z,65.65
2023-02-03T06:31:03.122Z,65.62
2023-02-03T06:33:36.497Z,65.77
2023-02-03T06:36:06.885Z,64.61
2023-02-03T06:38:34.655Z,64.66
2023-02-03T06:41:02.415Z,65.03
2023-02-03T06:43:33.573Z,63.80
2023-02-03T06:46:01.209Z,61.54
2023-02-03T06:48:28.931Z,61.53
2023-02-03T06:50:56.844Z,62.66
2023-02-03T06:53:24.558Z,61.60
2023-02-03T06:55:52.169Z,60.68
2023-02-03T06:58:22.320Z,60.77
2023-02-03T07:00:51.497Z,61.20
2023-02-03T07:03:21.774Z,61.01
2023-02-03T07:05:51.604Z,61.45
2023-02-03T07:08:19.309Z,61.82
2023-02-03T07:10:47.210Z,62.98
2023-02-03T07:13:14.924Z,64.41
2023-02-03T07:15:43.094Z,65.64
2023-02-03T07:18:14.983Z,66.60
2023-02-03T07:20:45.650Z,67.01
2023-02-03T07:23:15.733Z,67.33
2023-02-03T07:25:43.416Z,67.94
2023-02-03T07:28:11.125Z,68.65
2023-02-03T07:30:38.819Z,68.89
2023-02-03T07:33:08.139Z,68.79
2023-02-03T07:35:35.868Z,68.83
2023-02-03T07:38:03.485Z,68.79
2023-02-03T07:40:31.122Z,68.50
2023-02-03T07:42:59.839Z,67.96
2023-02-03T07:45:27.747Z,66.14
2023-02-03T07:47:55.474Z,64.79
2023-02-03T07:50:24.295Z,63.26
2023-02-03T07:52:53.208Z,64.83
2023-02-03T07:55:24.495Z,63.91
2023-02-03T07:57:54.359Z,64.80
2023-02-03T08:00:22.590Z,65.98
2023-02-03T08:02:50.279Z,67.49
2023-02-03T08:05:20.289Z,68.23
2023-02-03T08:07:47.902Z,69.20
2023-02-03T08:10:17.928Z,68.73
2023-02-03T08:12:46.786Z,69.37
2023-02-03T08:15:17.329Z,69.37
2023-02-03T08:17:45.103Z,69.71
2023-02-03T08:20:13.281Z,70.90
2023-02-03T08:22:40.877Z,71.23
2023-02-03T08:25:09.336Z,71.46
2023-02-03T08:27:37.129Z,71.89
2023-02-03T08:30:05.572Z,72.06
2023-02-03T08:32:34.300Z,72.39
2023-02-03T08:35:02.020Z,72.43
2023-02-03T08:37:32.933Z,73.44
2023-02-03T08:40:00.999Z,73.83
2023-02-03T08:42:28.911Z,73.36
2023-02-03T08:44:56.801Z,74.03
2023-02-03T08:47:26.655Z,74.28
2023-02-03T08:49:54.478Z,74.53
2023-02-03T08:52:24.953Z,74.63
2023-02-03T08:54:52.587Z,75.11
2023-02-03T08:57:20.744Z,75.40
2023-02-03T08:59:48.957Z,75.39
2023-02-03T09:02:19.583Z,75.65
2023-02-03T09:04:49.207Z,75.89
2023-02-03T09:07:17.061Z,76.10
2023-02-03T09:09:44.744Z,77.58
2023-02-03T09:12:15.431Z,78.34
2023-02-03T09:14:45.424Z,79.34
2023-02-03T09:17:13.584Z,80.14
2023-02-03T09:19:42.020Z,80.73
2023-02-03T09:22:11.763Z,81.40
2023-02-03T09:24:39.735Z,80.94
2023-02-03T09:27:07.568Z,82.80
2023-02-03T09:29:37.933Z,83.92
2023-02-03T09:32:08.860Z,85.20
2023-02-03T09:34:36.803Z,88.19
2023-02-03T09:37:04.623Z,89.53
2023-02-03T09:39:32.454Z,88.75
2023-02-03T09:42:13.916Z,90.09
2023-02-03T09:45:02.561Z,90.79
2023-02-03T09:47:38.596Z,91.71
2023-02-03T09:50:13.021Z,91.10
2023-02-03T09:52:44.868Z,92.93
2023-02-03T09:55:37.152Z,92.01
2023-02-03T09:58:25.682Z,93.27
2023-02-03T10:01:02.411Z,92.63
2023-02-03T10:03:48.485Z,93.13
2023-02-03T10:06:39.210Z,92.24
2023-02-03T10:09:12.947Z,94.39
2023-02-03T10:12:02.123Z,93.01
2023-02-03T10:15:00.511Z,93.88
2023-02-03T10:17:55.926Z,93.06
2023-02-03T10:20:33.479Z,96.22
2023-02-03T10:23:06.653Z,96.21
2023-02-03T10:25:40.992Z,94.54
2023-02-03T10:28:19.465Z,96.65
2023-02-03T10:30:55.385Z,97.80
2023-02-03T10:33:23.443Z,98.23
2023-02-03T10:35:54.544Z,97.58
2023-02-03T10:38:40.423Z,97.34
2023-02-03T10:41:08.395Z,97.95
2023-02-03T10:43:57.659Z,97.38
2023-02-03T10:46:36.917Z,98.45
2023-02-03T10:49:04.842Z,97.50
2023-02-03T10:51:41.656Z,98.36
2023-02-03T10:54:41.392Z,99.00
2023-02-03T10:57:17.665Z,100.00
2023-02-03T10:59:48.249Z,99.03
2023-02-03T11:02:45.870Z,98.83
2023-02-03T11:05:24.950Z,99.65
2023-02-03T11:07:55.683Z,99.89
2023-02-03T11:10:37.806Z,100.00
2023-02-03T11:13:19.337Z,99.68
2023-02-03T11:15:53.215Z,98.95
2023-02-03T11:18:39.160Z,99.53
2023-02-03T11:21:26.802Z,100.00
2023-02-03T11:23:57.836Z,99.51
2023-02-03T11:26:28.999Z,99.90
2023-02-03T11:29:00.532Z,99.70
2023-02-03T11:31:32.029Z,100.00
2023-02-03T11:34:06.322Z,100.00
2023-02-03T11:36:36.261Z,100.00
2023-02-03T11:39:11.210Z,100.00
2023-02-03T11:41:40.968Z,100.00
2023-02-03T11:44:14.532Z,100.00
2023-02-03T11:46:46.221Z,100.00
2023-02-03T11:49:55.939Z,100.00
2023-02-03T11:52:54.649Z,100.00
2023-02-03T11:55:34.984Z,100.00
2023-02-03T11:58:29.371Z,100.00
2023-02-03T12:00:59.813Z,100.00
2023-02-03T12:03:36.199Z,100.00
2023-02-03T12:06:26.305Z,100.00
2023-02-03T12:09:09.150Z,100.00
2023-02-03T12:11:49.835Z,100.00
2023-02-03T12:14:32.674Z,100.00
2023-02-03T12:17:33.541Z,100.00
2023-02-03T12:20:24.477Z,100.00
2023-02-03T12:23:19.124Z,100.00
2023-02-03T12:26:01.934Z,100.00
2023-02-03T12:28:38.852Z,100.00
2023-02-03T12:31:21.667Z,100.00
2023-02-03T12:33:55.168Z,100.00
2023-02-03T12:36:30.695Z,100.00
2023-02-03T12:39:09.165Z,100.00
2023-02-03T12:41:43.174Z,100.00
2023-02-03T12:44:55.481Z,100.00
2023-02-03T12:47:46.096Z,100.00
2023-02-03T12:50:30.772Z,100.00
2023-02-03T12:53:05.975Z,100.00
2023-02-03T12:55:41.749Z,100.00
2023-02-03T12:58:42.591Z,100.00
2023-02-03T13:01:29.588Z,100.00
2023-02-03T13:03:57.223Z,100.00
2023-02-03T13:06:42.937Z,100.00
2023-02-03T13:09:39.786Z,100.00
2023-02-03T13:12:17.535Z,100.00
2023-02-03T13:14:54.835Z,100.00
2023-02-03T13:18:11.933Z,100.00
2023-02-03T13:20:39.517Z,100.00
2023-02-03T13:23:12.588Z,100.00
2023-02-03T13:26:19.430Z,100.00
2023-02-03T13:29:02.158Z,100.00
2023-02-03T13:32:09.471Z,100.00
2023-02-03T13:34:46.406Z,100.00
2023-02-03T13:37:55.408Z,100.00
2023-02-03T13:40:32.278Z,100.00
2023-02-03T13:43:05.729Z,100.00
2023-02-03T13:45:34.865Z,100.00
2023-02-03T13:48:19.091Z,100.00
2023-02-03T13:50:47.855Z,100.00
2023-02-03T13:53:25.793Z,100.00
2023-02-03T13:55:57.794Z,100.00
2023-02-03T13:58:30.152Z,100.00
2023-02-03T14:00:57.740Z,100.00
2023-02-03T14:03:25.351Z,100.00
2023-02-03T14:05:55.288Z,100.00
2023-02-03T14:08:28.915Z,100.00
2023-02-03T14:11:34.182Z,100.00
2023-02-03T14:14:11.144Z,100.00
2023-02-03T14:16:47.673Z,100.00
2023-02-03T14:19:35.265Z,100.00
2023-02-03T14:22:10.760Z,100.00
2023-02-03T14:24:40.275Z,100.00
2023-02-03T14:27:17.779Z,100.00
2023-02-03T14:29:45.694Z,100.00
2023-02-03T14:32:14.975Z,100.00
2023-02-03T14:34:47.789Z,100.00
2023-02-03T14:37:30.450Z,100.00
2023-02-03T14:40:33.319Z,100.00
2023-02-03T14:43:28.845Z,100.00
2023-02-03T14:46:20.698Z,100.00
2023-02-03T14:48:54.362Z,100.00
2023-02-03T14:51:22.433Z,100.00
2023-02-03T14:54:10.735Z,100.00
2023-02-03T14:57:27.791Z,100.00
2023-02-03T15:00:14.162Z,100.00
2023-02-03T15:03:08.951Z,100.00
2023-02-03T15:05:48.733Z,100.00
2023-02-03T15:08:44.115Z,100.00
2023-02-03T15:11:27.307Z,100.00
2023-02-03T15:13:57.355Z,100.00
2023-02-03T15:16:27.470Z,100.00
2023-02-03T15:18:59.717Z,100.00
2023-02-03T15:21:27.950Z,100.00
2023-02-03T15:23:56.954Z,100.00
2023-02-03T15:26:31.428Z,100.00
2023-02-03T15:29:05.071Z,100.00
2023-02-03T15:31:43.892Z,100.00
2023-02-03T15:34:56.095Z,100.00
2023-02-03T15:37:30.214Z,100.00
2023-02-03T15:40:15.109Z,100.00
2023-02-03T15:42:54.897Z,100.00
2023-02-03T15:45:36.032Z,100.00
2023-02-03T15:48:42.279Z,100.00
2023-02-03T15:51:16.446Z,100.00
2023-02-03T15:53:47.532Z,100.00
2023-02-03T15:56:41.656Z,100.00
2023-02-03T15:59:33.830Z,100.00
2023-02-03T16:02:07.759Z,100.00
2023-02-03T16:04:35.552Z,100.00
2023-02-03T16:07:03.199Z,100.00
2023-02-03T16:09:41.927Z,100.00
2023-02-03T16:12:29.516Z,100.00
2023-02-03T16:14:59.269Z,100.00
2023-02-03T16:17:39.766Z,100.00
2023-02-03T16:20:13.424Z,100.00
2023-02-03T16:22:48.848Z,100.00
2023-02-03T16:25:29.425Z,100.00
2023-02-03T16:31:35.458Z,100.00
2023-02-03T16:34:31.990Z,100.00
2023-02-03T16:37:19.297Z,100.00
2023-02-03T16:40:05.050Z,100.00
2023-02-03T16:42:59.964Z,100.00
2023-02-03T16:45:45.181Z,100.00
2023-02-03T16:48:31.229Z,100.00
2023-02-03T16:51:06.786Z,100.00
2023-02-03T16:53:39.494Z,100.00
2023-02-03T16:56:08.341Z,100.00
2023-02-03T16:58:53.996Z,100.00
2023-02-03T17:01:25.616Z,100.00
2023-02-03T17:03:55.358Z,100.00
2023-02-03T17:06:24.792Z,100.00
2023-02-03T17:08:57.757Z,100.00
2023-02-03T17:11:29.519Z,100.00
2023-02-03T17:13:58.545Z,100.00
2023-02-03T17:16:31.300Z,100.00
2023-02-03T17:35:43.824Z,100.00
2023-02-03T17:58:39.435Z,100.00
2023-02-03T18:01:35.744Z,100.00
2023-02-03T18:04:09.191Z,100.00
2023-02-03T18:09:37.879Z,100.00
2023-02-03T18:12:06.208Z,100.00
2023-02-03T18:15:26.181Z,100.00
2023-02-03T18:20:38.059Z,100.00
2023-02-03T18:23:08.408Z,100.00
2023-02-03T18:26:23.135Z,100.00
2023-02-03T18:28:55.651Z,100.00
2023-02-03T18:31:26.334Z,100.00
2023-02-03T18:34:02.451Z,100.00
2023-02-03T18:36:30.232Z,100.00
2023-02-03T18:38:57.934Z,100.00
2023-02-03T18:41:29.471Z,100.00
2023-02-03T18:43:57.452Z,100.00
2023-02-03T18:46:50.929Z,100.00
2023-02-03T18:49:25.389Z,100.00
2023-02-03T18:51:53.144Z,100.00
2023-02-03T18:54:25.440Z,100.00
2023-02-03T18:56:53.348Z,100.00
2023-02-03T18:59:22.071Z,100.00
2023-02-03T19:01:52.197Z,100.00
2023-02-03T19:04:24.803Z,100.00
2023-02-03T19:06:55.624Z,100.00
2023-02-03T19:09:25.440Z,100.00
2023-02-03T19:11:58.798Z,100.00
2023-02-03T19:14:28.783Z,100.00
2023-02-03T19:17:14.853Z,100.00
2023-02-03T19:19:46.138Z,100.00
2023-02-03T19:22:31.581Z,100.00
2023-02-03T19:25:01.429Z,100.00
2023-02-03T19:27:31.764Z,100.00
2023-02-03T19:30:02.608Z,100.00
2023-02-03T19:32:43.046Z,100.00
2023-02-03T19:35:16.721Z,100.00
2023-02-03T19:38:04.484Z,100.00
2023-02-03T19:40:32.483Z,100.00
2023-02-03T19:43:00.748Z,100.00
2023-02-03T19:45:28.892Z,100.00
2023-02-03T19:48:01.741Z,100.00
2023-02-03T19:50:30.402Z,100.00
2023-02-03T19:52:58.229Z,100.00
2023-02-03T19:55:30.876Z,100.00
2023-02-03T19:58:00.092Z,100.00
2023-02-03T20:00:31.830Z,100.00
2023-02-03T20:02:59.540Z,100.00
2023-02-03T20:05:36.118Z,100.00
2023-02-03T20:08:04.738Z,100.00
2023-02-03T20:10:49.091Z,100.00
2023-02-03T20:13:17.177Z,100.00
2023-02-03T20:15:47.668Z,100.00
2023-02-03T20:18:15.678Z,100.00
2023-02-03T20:20:43.424Z,100.00
2023-02-03T20:23:11.127Z,100.00
2023-02-03T20:25:40.593Z,100.00
2023-02-03T20:28:08.725Z,100.00
2023-02-03T20:30:36.852Z,100.00
2023-02-03T20:33:05.809Z,100.00
2023-02-03T20:35:33.485Z,100.00
2023-02-03T20:38:04.379Z,100.00
2023-02-03T20:43:22.869Z,100.00
2023-02-03T20:45:52.448Z,100.00
2023-02-03T20:48:34.672Z,100.00
2023-02-03T20:51:04.535Z,100.00
2023-02-03T20:53:35.666Z,100.00
2023-02-03T20:56:08.120Z,100.00
2023-02-03T20:58:38.567Z,100.00
2023-02-03T21:01:16.876Z,100.00
2023-02-03T21:04:19.653Z,100.00
2023-02-03T21:06:47.306Z,100.00
2023-02-03T21:09:17.309Z,100.00
2023-02-03T21:11:48.027Z,100.00
2023-02-03T21:14:24.506Z,100.00
2023-02-03T21:16:54.049Z,100.00
2023-02-03T21:19:28.506Z,100.00
2023-02-03T21:21:57.822Z,100.00
2023-02-03T21:24:29.293Z,100.00
2023-02-03T21:27:02.972Z,100.00
2023-02-03T21:29:34.345Z,100.00
2023-02-03T21:32:04.643Z,100.00
2023-02-03T21:34:38.014Z,99.71
2023-02-03T21:37:41.939Z,99.62
2023-02-03T21:40:31.968Z,99.31
2023-02-03T21:43:02.091Z,98.01
2023-02-03T21:45:44.563Z,98.00
2023-02-03T21:48:43.848Z,97.44
2023-02-03T21:52:13.531Z,97.36
2023-02-03T22:20:35.268Z,95.04
